createdAt,value
2018-01-30T00:32:34.864Z,66.11
2018-01-30T00:47:35.805Z,66.24
2018-01-30T01:02:36.479Z,66.33
2018-01-30T01:17:37.420Z,66.42
2018-01-30T01:32:35.610Z,66.87
2018-01-30T01:47:35.042Z,66.76
2018-01-30T02:02:35.465Z,66.83
2018-01-30T02:17:36.191Z,67.15
2018-01-30T02:32:35.664Z,67.46
2018-01-30T02:47:37.232Z,67.50
2018-01-30T03:02:37.509Z,67.94
2018-01-30T03:17:34.815Z,67.99
2018-01-30T03:32:35.128Z,68.10
2018-01-30T03:47:38.628Z,68.66
2018-01-30T04:02:37.331Z,68.86
2018-01-30T04:17:37.146Z,69.17
2018-01-30T04:32:38.337Z,69.31
2018-01-30T04:47:40.913Z,69.33
2018-01-30T05:02:34.918Z,69.12
2018-01-30T05:17:44.359Z,68.86
2018-01-30T05:32:43.117Z,68.86
2018-01-30T05:47:34.886Z,68.32
2018-01-30T06:02:34.808Z,67.96
2018-01-30T06:32:34.562Z,55.42
2018-01-30T06:47:35.441Z,49.59
2018-01-30T07:02:34.778Z,46.01
2018-01-30T07:17:35.260Z,46.65
2018-01-30T07:32:34.711Z,44.33
2018-01-30T07:47:36.335Z,42.36
2018-01-30T08:02:35.187Z,41.49
2018-01-30T08:17:35.309Z,41.33
2018-01-30T08:32:33.848Z,39.95
2018-01-30T08:47:34.396Z,38.90
2018-01-30T09:02:34.320Z,38.70
2018-01-30T09:17:34.638Z,38.10
2018-01-30T09:32:34.563Z,36.92
2018-01-30T09:47:37.187Z,35.75
2018-01-30T10:02:34.245Z,37.92
2018-01-30T10:17:35.268Z,38.86
2018-01-30T10:32:34.993Z,36.86
2018-01-30T10:47:36.045Z,36.84
2018-01-30T11:02:35.468Z,36.57
2018-01-30T11:17:37.356Z,40.97
2018-01-30T11:32:36.084Z,38.78
2018-01-30T11:47:37.154Z,35.47
2018-01-30T12:02:34.668Z,34.33
2018-01-30T12:17:34.598Z,34.69
2018-01-30T12:32:34.965Z,35.67
2018-01-30T12:47:35.464Z,36.49
2018-01-30T13:02:34.630Z,36.97
2018-01-30T13:17:34.742Z,37.44
2018-01-30T13:32:34.825Z,37.91
2018-01-30T13:47:34.689Z,39.12
2018-01-30T14:02:34.409Z,40.71
2018-01-30T14:17:35.060Z,42.40
2018-01-30T14:32:34.886Z,44.20
2018-01-30T14:47:34.948Z,45.21
2018-01-30T15:02:34.666Z,46.17
2018-01-30T15:17:35.103Z,46.57
2018-01-30T15:32:34.970Z,46.99
2018-01-30T15:47:34.924Z,47.64
2018-01-30T16:02:34.816Z,48.96
2018-01-30T16:17:35.556Z,49.09
2018-01-30T16:32:34.266Z,50.16
2018-01-30T16:47:37.167Z,51.65
2018-01-30T17:02:37.772Z,53.08
2018-01-30T17:17:34.593Z,54.97
2018-01-30T17:32:34.917Z,56.09
2018-01-30T17:47:40.718Z,56.81
2018-01-30T18:02:37.755Z,57.47
2018-01-30T18:17:34.689Z,57.83
2018-01-30T18:32:34.766Z,57.83
2018-01-30T18:47:34.606Z,58.37
2018-01-30T19:02:36.845Z,58.97
2018-01-30T19:17:41.833Z,58.98
2018-01-30T19:32:36.167Z,58.66
2018-01-30T19:47:38.344Z,58.36
2018-01-30T20:02:34.983Z,58.53
2018-01-30T20:17:38.447Z,58.69
2018-01-30T20:32:34.287Z,57.98
2018-01-30T20:47:37.654Z,57.30
2018-01-30T21:02:34.397Z,57.13
2018-01-30T21:32:36.693Z,57.02
2018-01-30T21:47:36.631Z,56.90
2018-01-30T22:02:34.439Z,56.48
2018-01-30T22:17:34.831Z,55.89
